createdAt,value
2023-06-09T00:00:13.969Z,2.40
2023-06-09T00:02:45.319Z,2.37
2023-06-09T00:05:16.371Z,2.20
2023-06-09T00:07:48.974Z,2.62
2023-06-09T00:10:19.040Z,2.65
2023-06-09T00:12:49.536Z,2.87
2023-06-09T00:15:19.091Z,2.30
2023-06-09T00:17:50.956Z,2.80
2023-06-09T00:20:21.868Z,2.35
2023-06-09T00:25:21.501Z,2.47
2023-06-09T00:30:38.730Z,2.30
2023-06-09T00:32:56.338Z,2.23
2023-06-09T00:35:26.703Z,2.57
2023-06-09T00:37:57.121Z,3.33
2023-06-09T00:40:27.124Z,2.27
2023-06-09T00:42:57.309Z,1.83
2023-06-09T00:45:27.232Z,2.73
2023-06-09T00:47:57.724Z,2.70
2023-06-09T00:52:58.618Z,1.82
2023-06-09T00:55:29.394Z,3.30
2023-06-09T00:58:03.092Z,2.07
2023-06-09T01:00:34.896Z,2.43
2023-06-09T01:03:05.275Z,2.40
2023-06-09T01:05:40.316Z,2.27
2023-06-09T01:08:24.632Z,2.60
2023-06-09T01:11:12.369Z,3.00
2023-06-09T01:14:08.992Z,2.55
2023-06-09T01:16:44.829Z,2.73
2023-06-09T01:19:17.476Z,2.30
2023-06-09T01:21:49.902Z,2.87
2023-06-09T01:24:47.420Z,2.85
2023-06-09T01:27:19.645Z,2.62
2023-06-09T01:29:52.817Z,2.77
2023-06-09T01:32:25.108Z,2.83
2023-06-09T01:34:56.365Z,2.73
2023-06-09T01:37:27.311Z,3.02
2023-06-09T01:42:26.666Z,2.87
2023-06-09T01:44:56.268Z,2.83
2023-06-09T01:47:26.286Z,3.00
2023-06-09T01:50:02.463Z,3.00
2023-06-09T01:52:47.413Z,2.43
2023-06-09T01:55:23.034Z,2.80
2023-06-09T01:58:04.838Z,3.83
2023-06-09T02:00:35.483Z,3.23
2023-06-09T02:03:09.353Z,2.90
2023-06-09T02:05:40.093Z,2.80
2023-06-09T02:08:10.876Z,2.63
2023-06-09T02:10:42.029Z,3.22
2023-06-09T02:15:50.012Z,3.35
2023-06-09T02:18:21.648Z,3.10
2023-06-09T02:20:52.169Z,2.42
2023-06-09T02:23:23.454Z,2.97
2023-06-09T02:25:53.749Z,3.53
2023-06-09T02:28:23.582Z,3.57
2023-06-09T02:30:53.896Z,3.00
2023-06-09T02:33:25.308Z,3.80
2023-06-09T02:35:55.669Z,3.27
2023-06-09T02:38:25.707Z,3.80
2023-06-09T02:40:55.629Z,3.23
2023-06-09T02:43:25.432Z,3.47
2023-06-09T02:45:55.504Z,2.73
2023-06-09T02:48:26.605Z,3.67
2023-06-09T02:50:56.466Z,3.27
2023-06-09T02:53:28.503Z,3.70
2023-06-09T02:55:59.251Z,3.00
2023-06-09T02:58:31.493Z,4.17
2023-06-09T03:01:02.714Z,3.35
2023-06-09T03:03:33.068Z,3.20
2023-06-09T03:06:03.316Z,3.33
2023-06-09T03:08:33.270Z,3.00
2023-06-09T03:11:03.162Z,3.57
2023-06-09T03:13:33.400Z,3.03
2023-06-09T03:16:04.889Z,3.70
2023-06-09T03:18:35.027Z,3.20
2023-06-09T03:21:06.221Z,3.05
2023-06-09T03:23:37.805Z,3.23
2023-06-09T03:26:08.142Z,3.90
2023-06-09T03:28:38.358Z,4.20
2023-06-09T03:31:08.562Z,3.57
2023-06-09T03:33:38.540Z,3.23
2023-06-09T03:36:09.831Z,3.80
2023-06-09T03:38:40.035Z,4.17
2023-06-09T03:41:09.743Z,3.83
2023-06-09T03:43:39.779Z,3.80
2023-06-09T03:46:09.985Z,4.30
2023-06-09T03:48:40.361Z,3.83
2023-06-09T03:51:10.210Z,3.30
2023-06-09T03:53:40.282Z,4.47
2023-06-09T03:56:10.307Z,3.87
2023-06-09T03:58:40.736Z,3.73
2023-06-09T04:01:12.149Z,3.60
2023-06-09T04:03:42.336Z,3.90
2023-06-09T04:06:12.063Z,3.57
2023-06-09T04:08:43.545Z,3.70
2023-06-09T04:11:14.231Z,4.47
2023-06-09T04:13:44.195Z,3.57
2023-06-09T04:16:13.854Z,3.80
2023-06-09T04:18:44.715Z,3.45
2023-06-09T04:21:15.377Z,3.00
2023-06-09T04:23:45.329Z,3.50
2023-06-09T04:26:15.851Z,3.17
2023-06-09T04:28:45.964Z,3.37
2023-06-09T04:31:17.813Z,3.03
2023-06-09T04:33:48.189Z,2.85
2023-06-09T04:36:18.457Z,3.03
2023-06-09T04:38:49.245Z,2.83
2023-06-09T04:41:19.474Z,2.98
2023-06-09T04:43:50.813Z,2.90
2023-06-09T04:46:23.223Z,3.10
2023-06-09T04:48:55.424Z,2.80
2023-06-09T04:51:25.390Z,2.80
2023-06-09T04:53:59.846Z,2.87
2023-06-09T04:56:30.207Z,2.43
2023-06-09T04:59:00.689Z,2.30
2023-06-09T05:01:30.679Z,3.43
2023-06-09T05:04:01.355Z,3.05
2023-06-09T05:06:31.676Z,2.73
2023-06-09T05:09:01.879Z,3.43
2023-06-09T05:11:32.026Z,3.03
2023-06-09T05:14:08.737Z,3.20
2023-06-09T05:16:40.109Z,2.90
2023-06-09T05:19:10.185Z,2.03
2023-06-09T05:21:43.686Z,3.37
2023-06-09T05:24:14.187Z,2.93
2023-06-09T05:29:13.808Z,2.83
2023-06-09T05:31:56.179Z,2.87
2023-06-09T05:34:28.353Z,2.80
2023-06-09T05:36:59.241Z,2.70
2023-06-09T05:42:00.234Z,2.37
2023-06-09T05:44:30.246Z,2.13
2023-06-09T05:47:00.117Z,2.07
2023-06-09T05:49:31.296Z,2.55
2023-06-09T05:54:30.625Z,2.22
2023-06-09T05:57:00.450Z,2.10
2023-06-09T05:59:31.938Z,2.60
2023-06-09T06:02:02.325Z,2.50
2023-06-09T06:04:32.495Z,2.50
2023-06-09T06:07:02.265Z,2.40
2023-06-09T06:09:33.640Z,2.47
2023-06-09T06:12:04.575Z,2.07
2023-06-09T06:14:34.694Z,2.67
2023-06-09T06:17:04.642Z,2.00
2023-06-09T06:19:34.414Z,2.40
2023-06-09T06:22:05.120Z,2.87
2023-06-09T06:27:03.956Z,2.10
2023-06-09T06:29:34.761Z,2.90
2023-06-09T06:34:34.229Z,3.25
2023-06-09T06:37:04.189Z,2.70
2023-06-09T06:39:34.579Z,2.72
2023-06-09T06:42:04.709Z,2.87
2023-06-09T06:44:36.264Z,2.80
2023-06-09T06:47:07.286Z,2.37
2023-06-09T06:52:09.875Z,2.52
2023-06-09T06:54:39.755Z,2.00
2023-06-09T06:57:09.343Z,2.70
2023-06-09T06:59:39.216Z,3.00
2023-06-09T07:02:10.787Z,2.37
2023-06-09T07:04:41.058Z,2.60
2023-06-09T07:07:10.925Z,2.03
2023-06-09T07:09:40.674Z,2.37
2023-06-09T07:12:12.335Z,2.13
2023-06-09T07:14:42.255Z,2.57
2023-06-09T07:17:12.371Z,2.57
2023-06-09T07:19:41.976Z,2.60
2023-06-09T07:22:12.069Z,2.57
2023-06-09T07:24:41.633Z,2.17
2023-06-09T07:27:11.491Z,2.13
2023-06-09T07:29:43.809Z,2.43
2023-06-09T07:32:13.906Z,2.37
2023-06-09T07:34:44.292Z,1.83
2023-06-09T07:37:14.657Z,2.05
2023-06-09T07:39:44.309Z,2.00
2023-06-09T07:42:14.125Z,2.27
2023-06-09T07:44:43.796Z,2.37
2023-06-09T07:47:13.632Z,3.40
2023-06-09T07:49:43.263Z,2.83
2023-06-09T07:52:23.801Z,2.60
2023-06-09T07:54:44.741Z,2.60
2023-06-09T07:57:14.686Z,2.77
2023-06-09T07:59:45.962Z,3.63
2023-06-09T08:02:17.144Z,3.67
2023-06-09T08:04:47.129Z,3.63
2023-06-09T08:07:16.994Z,2.83
2023-06-09T08:09:46.840Z,3.67
2023-06-09T08:12:16.733Z,3.20
2023-06-09T08:14:47.674Z,2.93
2023-06-09T08:17:17.337Z,2.90
2023-06-09T08:19:46.905Z,3.03
2023-06-09T08:22:16.857Z,3.05
2023-06-09T08:24:48.148Z,2.40
2023-06-09T08:27:18.168Z,3.77
2023-06-09T08:29:50.069Z,2.80
2023-06-09T08:32:20.019Z,2.22
2023-06-09T08:34:49.944Z,2.03
2023-06-09T08:37:20.310Z,2.20
2023-06-09T08:39:51.123Z,2.37
2023-06-09T08:42:26.257Z,2.30
2023-06-09T08:45:05.092Z,2.40
2023-06-09T08:47:35.755Z,2.03
2023-06-09T08:50:09.004Z,2.30
2023-06-09T08:52:39.857Z,2.70
2023-06-09T08:57:42.814Z,3.10
2023-06-09T09:00:13.826Z,2.90
2023-06-09T09:02:44.858Z,2.67
2023-06-09T09:07:45.722Z,2.72
2023-06-09T09:10:15.929Z,2.33
2023-06-09T09:12:52.981Z,2.43
2023-06-09T09:15:27.214Z,2.63
2023-06-09T09:17:58.751Z,2.63
2023-06-09T09:20:35.806Z,3.33
2023-06-09T09:23:07.090Z,3.50
2023-06-09T09:28:12.662Z,2.58
2023-06-09T09:30:46.435Z,3.10
2023-06-09T09:33:25.224Z,4.00
2023-06-09T09:35:57.274Z,3.27
2023-06-09T09:38:30.020Z,3.35
2023-06-09T09:41:01.362Z,2.83
2023-06-09T09:43:31.897Z,2.80
2023-06-09T09:46:08.913Z,2.77
2023-06-09T09:48:39.929Z,3.90
2023-06-09T09:51:12.677Z,3.05
2023-06-09T09:53:48.487Z,2.90
2023-06-09T09:56:22.925Z,3.40
2023-06-09T09:58:55.931Z,3.10
2023-06-09T10:01:27.282Z,2.40
2023-06-09T10:03:58.739Z,2.70
2023-06-09T10:06:31.336Z,3.00
2023-06-09T10:09:01.562Z,2.60
2023-06-09T10:11:33.197Z,2.63
2023-06-09T10:14:03.314Z,3.07
2023-06-09T10:16:34.280Z,2.72
2023-06-09T10:21:34.559Z,2.80
2023-06-09T10:24:07.299Z,2.73
2023-06-09T10:26:39.553Z,2.37
2023-06-09T10:29:10.831Z,3.00
2023-06-09T10:31:43.910Z,2.60
2023-06-09T10:34:16.614Z,2.27
2023-06-09T10:36:46.806Z,2.07
2023-06-09T10:39:25.881Z,2.13
2023-06-09T10:42:13.978Z,1.63
2023-06-09T10:44:58.728Z,1.73
2023-06-09T10:47:49.320Z,1.50
2023-06-09T10:50:31.005Z,1.22
2023-06-09T10:53:01.719Z,1.57
2023-06-09T10:55:31.960Z,1.35
2023-06-09T10:58:01.625Z,1.20
2023-06-09T11:00:34.452Z,1.20
2023-06-09T11:03:13.534Z,1.43
2023-06-09T11:05:45.869Z,1.30
2023-06-09T11:08:16.308Z,1.57
2023-06-09T11:10:47.714Z,1.00
2023-06-09T11:13:41.951Z,0.70
2023-06-09T11:16:11.766Z,0.80
2023-06-09T11:18:41.507Z,1.00
2023-06-09T11:21:20.688Z,1.10
2023-06-09T11:24:00.406Z,0.90
2023-06-09T11:26:31.414Z,0.80
2023-06-09T11:29:03.343Z,0.63
2023-06-09T11:31:49.924Z,0.73
2023-06-09T11:34:39.768Z,1.30
2023-06-09T11:37:10.643Z,1.20
2023-06-09T11:39:41.259Z,1.20
2023-06-09T11:42:11.112Z,1.15
2023-06-09T11:44:42.121Z,1.43
2023-06-09T11:47:32.239Z,1.87
2023-06-09T11:50:06.830Z,1.75
2023-06-09T11:52:37.076Z,1.50
2023-06-09T11:55:08.198Z,1.57
2023-06-09T11:57:38.987Z,1.70
2023-06-09T12:00:13.032Z,1.92
2023-06-09T12:02:50.045Z,1.90
2023-06-09T12:05:20.406Z,1.67
2023-06-09T12:07:52.893Z,1.50
2023-06-09T12:10:25.826Z,1.40
2023-06-09T12:12:58.512Z,1.92
2023-06-09T12:15:30.014Z,1.63
2023-06-09T12:18:03.750Z,1.77
2023-06-09T12:20:36.245Z,1.80
2023-06-09T12:23:13.987Z,1.50
2023-06-09T12:25:50.745Z,2.03
2023-06-09T12:28:29.418Z,1.37
2023-06-09T12:31:09.934Z,2.03
2023-06-09T12:33:40.233Z,1.40
2023-06-09T12:36:12.187Z,1.63
2023-06-09T12:38:47.321Z,1.60
2023-06-09T12:41:19.431Z,1.33
2023-06-09T12:43:56.094Z,2.27
2023-06-09T12:46:31.849Z,2.40
2023-06-09T12:49:06.984Z,1.63
2023-06-09T12:51:43.445Z,1.57
2023-06-09T12:54:14.785Z,2.00
2023-06-09T12:56:44.677Z,1.90
2023-06-09T12:59:14.554Z,1.40
2023-06-09T13:01:47.020Z,1.70
2023-06-09T13:04:18.620Z,2.25
2023-06-09T13:06:48.581Z,1.30
2023-06-09T13:09:18.500Z,1.98
2023-06-09T13:11:48.468Z,1.87
2023-06-09T13:14:18.405Z,1.50
2023-06-09T13:16:48.146Z,1.90
2023-06-09T13:19:18.096Z,1.87
2023-06-09T13:21:47.778Z,1.33
2023-06-09T13:24:18.256Z,2.27
2023-06-09T13:26:50.208Z,1.90
2023-06-09T13:29:22.208Z,1.83
2023-06-09T13:31:52.056Z,1.90
2023-06-09T13:34:22.010Z,2.03
2023-06-09T13:36:52.147Z,2.10
2023-06-09T13:39:21.794Z,2.07
2023-06-09T13:41:51.690Z,2.10
2023-06-09T13:44:22.209Z,1.87
2023-06-09T13:46:52.979Z,2.20
2023-06-09T13:49:22.994Z,1.40
2023-06-09T13:51:53.025Z,2.07
2023-06-09T13:54:22.940Z,1.47
2023-06-09T13:56:54.106Z,2.00
2023-06-09T13:59:23.705Z,1.57
2023-06-09T14:01:54.877Z,1.50
2023-06-09T14:04:25.592Z,1.97
2023-06-09T14:06:55.343Z,1.75
2023-06-09T14:09:25.942Z,1.57
2023-06-09T14:11:59.907Z,1.50
2023-06-09T14:14:27.523Z,1.20
2023-06-09T14:16:59.424Z,1.43
2023-06-09T14:19:30.521Z,1.80
2023-06-09T14:22:01.533Z,1.87
2023-06-09T14:24:31.485Z,1.45
2023-06-09T14:27:01.963Z,1.30
2023-06-09T14:29:33.924Z,1.77
2023-06-09T14:32:04.789Z,1.90
2023-06-09T14:34:34.718Z,1.83
2023-06-09T14:37:04.594Z,1.83
2023-06-09T14:39:35.735Z,2.17
2023-06-09T14:42:07.741Z,1.53
2023-06-09T14:44:39.376Z,1.30
2023-06-09T14:47:09.099Z,1.43
2023-06-09T14:49:38.675Z,1.63
2023-06-09T14:52:08.791Z,1.20
2023-06-09T14:54:38.415Z,1.47
2023-06-09T14:57:09.113Z,2.00
2023-06-09T14:59:38.699Z,1.75
2023-06-09T15:02:08.607Z,1.50
2023-06-09T15:04:38.387Z,1.50
2023-06-09T15:07:09.865Z,1.37
2023-06-09T15:09:39.712Z,1.87
2023-06-09T15:12:09.891Z,1.57
2023-06-09T15:14:39.802Z,1.60
2023-06-09T15:17:12.669Z,1.23
2023-06-09T15:19:49.766Z,1.60
2023-06-09T15:22:22.047Z,1.67
2023-06-09T15:24:58.592Z,1.80
2023-06-09T15:27:28.435Z,1.73
2023-06-09T15:29:58.580Z,1.50
2023-06-09T15:32:28.427Z,1.27
2023-06-09T15:34:58.736Z,1.02
2023-06-09T15:37:28.313Z,1.23
2023-06-09T15:39:58.168Z,1.63
2023-06-09T15:42:28.024Z,1.23
2023-06-09T15:44:58.135Z,1.90
2023-06-09T15:47:29.640Z,1.50
2023-06-09T15:50:01.695Z,1.85
2023-06-09T15:52:31.538Z,1.53
2023-06-09T15:55:01.407Z,1.60
2023-06-09T15:57:31.266Z,1.47
2023-06-09T16:00:01.553Z,1.57
2023-06-09T16:02:32.891Z,1.50
2023-06-09T16:05:02.940Z,1.50
2023-06-09T16:07:32.472Z,1.70
2023-06-09T16:10:04.075Z,1.40
2023-06-09T16:12:33.985Z,1.30
2023-06-09T16:15:04.191Z,1.27
2023-06-09T16:17:34.102Z,1.60
2023-06-09T16:20:04.310Z,1.77
2023-06-09T16:22:35.593Z,1.33
2023-06-09T16:25:07.322Z,1.62
2023-06-09T16:27:38.484Z,1.57
2023-06-09T16:30:10.822Z,1.97
2023-06-09T16:32:43.575Z,1.47
2023-06-09T16:35:13.404Z,1.10
2023-06-09T16:37:44.324Z,1.33
2023-06-09T16:40:14.329Z,1.40
2023-06-09T16:42:43.911Z,1.40
2023-06-09T16:45:13.557Z,1.37
2023-06-09T16:47:43.156Z,2.13
2023-06-09T16:50:13.055Z,1.90
2023-06-09T16:52:42.642Z,1.50
2023-06-09T16:55:13.158Z,1.50
2023-06-09T16:57:43.090Z,1.40
2023-06-09T17:00:13.733Z,1.33
2023-06-09T17:02:43.711Z,1.20
2023-06-09T17:05:13.292Z,1.43
2023-06-09T17:07:44.124Z,1.70
2023-06-09T17:10:14.017Z,1.30
2023-06-09T17:12:43.858Z,1.90
2023-06-09T17:15:14.480Z,0.77
2023-06-09T17:17:44.357Z,0.53
2023-06-09T17:20:15.684Z,0.60
2023-06-09T17:22:45.593Z,0.60
2023-06-09T17:25:16.686Z,0.50
2023-06-09T17:27:48.200Z,0.70
2023-06-09T17:30:19.140Z,0.50
2023-06-09T17:32:49.134Z,0.70
2023-06-09T17:35:18.985Z,0.60
2023-06-09T17:37:48.662Z,0.80
2023-06-09T17:40:19.600Z,0.83
2023-06-09T17:42:50.541Z,0.57
2023-06-09T17:45:20.486Z,1.45
2023-06-09T17:47:50.753Z,0.95
2023-06-09T17:50:20.537Z,0.90
2023-06-09T17:52:50.754Z,1.00
2023-06-09T17:55:20.604Z,1.00
2023-06-09T17:57:50.524Z,1.10
2023-06-09T18:04:03.346Z,1.10
2023-06-09T18:13:04.220Z,1.10
2023-06-09T18:15:35.061Z,1.10
2023-06-09T18:18:06.916Z,1.37
2023-06-09T18:20:51.139Z,1.15
2023-06-09T18:27:07.533Z,1.50
2023-06-09T18:29:37.728Z,1.67
2023-06-09T18:32:08.419Z,1.43
2023-06-09T18:37:07.167Z,1.70
2023-06-09T18:39:37.181Z,1.93
2023-06-09T18:42:07.483Z,1.97
2023-06-09T18:44:39.118Z,1.80
2023-06-09T18:47:09.388Z,1.93
2023-06-09T18:49:39.584Z,2.15
2023-06-09T18:52:09.521Z,1.50
2023-06-09T18:54:39.545Z,2.13
2023-06-09T18:57:09.586Z,2.33
2023-06-09T18:59:39.197Z,1.80
2023-06-09T19:02:09.286Z,2.57
2023-06-09T19:04:38.849Z,2.90
2023-06-09T19:07:09.085Z,2.63
2023-06-09T19:09:39.192Z,2.10
2023-06-09T19:12:09.486Z,2.47
2023-06-09T19:14:40.298Z,2.30
2023-06-09T19:19:38.833Z,1.90
2023-06-09T19:22:09.112Z,1.98
2023-06-09T19:24:38.665Z,1.87
2023-06-09T19:27:08.463Z,2.00
2023-06-09T19:29:38.300Z,1.77
2023-06-09T19:32:08.428Z,2.50
2023-06-09T19:34:39.369Z,1.97
2023-06-09T19:37:09.306Z,1.75
2023-06-09T19:39:39.149Z,1.90
2023-06-09T19:42:09.049Z,2.00
2023-06-09T19:44:38.961Z,2.07
2023-06-09T19:47:08.904Z,2.00
2023-06-09T19:49:38.508Z,1.67
2023-06-09T19:52:08.541Z,1.97
2023-06-09T19:54:38.079Z,2.47
2023-06-09T19:57:08.569Z,1.50
2023-06-09T19:59:38.388Z,1.98
2023-06-09T20:02:08.108Z,1.67
2023-06-09T20:04:38.111Z,1.80
2023-06-09T20:07:07.721Z,1.90
2023-06-09T20:09:37.922Z,2.20
2023-06-09T20:12:08.274Z,1.70
2023-06-09T20:14:38.516Z,1.82
2023-06-09T20:17:08.292Z,1.83
2023-06-09T20:19:39.510Z,1.50
2023-06-09T20:22:10.898Z,1.80
2023-06-09T20:27:09.551Z,1.80
2023-06-09T20:29:39.628Z,1.80
2023-06-09T20:32:09.510Z,1.47
2023-06-09T20:34:39.383Z,2.00
2023-06-09T20:37:09.268Z,1.73
2023-06-09T20:39:39.215Z,1.60
2023-06-09T20:42:10.432Z,1.70
2023-06-09T20:44:39.976Z,1.47
2023-06-09T20:47:10.151Z,1.40
2023-06-09T20:49:39.891Z,1.80
2023-06-09T20:52:10.243Z,2.20
2023-06-09T20:54:40.576Z,1.77
2023-06-09T20:57:10.951Z,1.57
2023-06-09T20:59:41.560Z,1.92
2023-06-09T21:02:11.866Z,1.85
2023-06-09T21:04:43.632Z,2.47
2023-06-09T21:07:13.619Z,1.90
2023-06-09T21:09:43.436Z,2.20
2023-06-09T21:12:13.129Z,1.53
2023-06-09T21:14:42.980Z,1.57
2023-06-09T21:17:12.831Z,1.95
2023-06-09T21:19:44.286Z,2.20
2023-06-09T21:22:14.183Z,1.52
2023-06-09T21:24:45.117Z,2.23
2023-06-09T21:27:14.680Z,2.17
2023-06-09T21:29:44.512Z,2.13
2023-06-09T21:32:14.077Z,1.77
2023-06-09T21:34:45.423Z,1.75
2023-06-09T21:37:15.057Z,1.82
2023-06-09T21:39:45.299Z,1.80
2023-06-09T21:42:15.725Z,2.50
2023-06-09T21:44:46.106Z,2.10
2023-06-09T21:47:15.967Z,2.00
2023-06-09T21:49:46.634Z,2.00
2023-06-09T21:52:16.808Z,1.87
2023-06-09T21:54:46.659Z,1.70
2023-06-09T21:57:16.381Z,2.23
2023-06-09T21:59:46.321Z,2.03
2023-06-09T22:02:16.352Z,2.15
2023-06-09T22:04:46.267Z,2.27
2023-06-09T22:07:15.927Z,2.07
2023-06-09T22:09:45.810Z,1.80
2023-06-09T22:12:18.288Z,2.30
2023-06-09T22:14:48.916Z,2.20
2023-06-09T22:17:20.166Z,2.20
2023-06-09T22:19:51.210Z,1.90
2023-06-09T22:22:21.091Z,2.35
2023-06-09T22:24:50.928Z,1.80
2023-06-09T22:27:20.842Z,2.17
2023-06-09T22:29:51.219Z,2.47
2023-06-09T22:32:21.966Z,2.75
2023-06-09T22:37:21.400Z,1.90
2023-06-09T22:39:51.605Z,2.20
2023-06-09T22:42:21.567Z,2.05
2023-06-09T22:44:51.413Z,2.17
2023-06-09T22:47:21.059Z,1.90
2023-06-09T22:50:09.660Z,2.20
2023-06-09T22:52:45.846Z,2.07
2023-06-09T22:55:17.450Z,1.85
2023-06-09T22:57:50.434Z,2.40
2023-06-09T23:00:24.465Z,2.07
2023-06-09T23:02:54.739Z,2.27
2023-06-09T23:05:32.257Z,1.63
2023-06-09T23:08:02.377Z,2.13
2023-06-09T23:10:32.217Z,2.40
2023-06-09T23:13:02.429Z,2.00
2023-06-09T23:15:33.089Z,2.00
2023-06-09T23:18:03.902Z,2.52
2023-06-09T23:20:35.579Z,2.65
2023-06-09T23:23:08.166Z,2.07
2023-06-09T23:25:38.092Z,1.90
2023-06-09T23:28:07.870Z,2.30
2023-06-09T23:30:37.998Z,2.22
2023-06-09T23:33:07.818Z,2.17
2023-06-09T23:35:37.773Z,2.13
2023-06-09T23:38:07.395Z,2.27
2023-06-09T23:40:37.289Z,2.40
2023-06-09T23:43:07.179Z,2.30
2023-06-09T23:45:37.417Z,2.03
2023-06-09T23:48:07.413Z,2.30
2023-06-09T23:50:37.116Z,2.83
2023-06-09T23:53:09.363Z,2.13
2023-06-09T23:55:39.505Z,3.08
2023-06-09T23:58:09.060Z,3.13
